Time;durP1;ratioP1;P1;durP2;ratioP2;P2;SDS_P1;SDS_P2;PMS_P1;PMS_P2;Temp;Humidity;BMP_temperature;BMP_pressure;BME280_temperature;BME280_humidity;BME280_pressure;Samples;Min_cycle;Max_cycle;Signal;HPM_P1;HPM_P2
2023/07/26 00:01:00;;;;;;;;;;;;;;;25.89;57.98;99330.72;7395995;19;1279;-41
2023/07/26 00:03:28;;;;;;;;;;;;;;;25.87;57.46;99321.97;7396095;19;1386;-41
2023/07/26 00:05:56;;;;;;;;;;;;;;;25.90;57.73;99324.22;7396135;19;1834;-41
2023/07/26 00:08:27;;;;;;;;;;;;;;;25.84;57.91;99327.81;7397038;19;1609;-41
2023/07/26 00:10:55;;;;;;;;;;;;;;;25.79;57.21;99321.16;7395443;19;1470;-41
2023/07/26 00:13:24;;;;;;;;;;;;;;;25.90;57.91;99319.66;7396673;19;1195;-41
2023/07/26 00:15:52;;;;;;;;;;;;;;;25.84;57.29;99333.22;7395455;19;1261;-41
2023/07/26 00:18:20;;;;;;;;;;;;;;;25.85;57.18;99313.22;7396928;19;1428;-41
2023/07/26 00:20:48;;;;;;;;;;;;;;;25.91;57.40;99317.81;7393382;19;1854;-41
2023/07/26 00:23:17;;;;;;;;;;;;;;;25.86;57.55;99314.88;7395794;19;1563;-41
2023/07/26 00:25:48;;;;;;;;;;;;;;;25.89;57.61;99304.44;7396271;19;1457;-41
2023/07/26 00:28:16;;;;;;;;;;;;;;;25.86;57.12;99317.59;7397157;19;1532;-41
2023/07/26 00:30:44;;;;;;;;;;;;;;;25.89;57.05;99309.03;7396832;19;1552;-41
2023/07/26 00:33:13;;;;;;;;;;;;;;;25.83;57.18;99293.66;7395828;19;1540;-41
2023/07/26 00:35:42;;;;;;;;;;;;;;;25.88;56.80;99312.78;7395092;19;1542;-41
2023/07/26 00:38:11;;;;;;;;;;;;;;;25.95;57.15;99302.78;7395953;19;1512;-41
2023/07/26 00:40:39;;;;;;;;;;;;;;;25.88;56.87;99296.53;7393906;19;1848;-41
2023/07/26 00:43:10;;;;;;;;;;;;;;;25.89;56.82;99295.50;7396279;19;1280;-41
2023/07/26 00:45:41;;;;;;;;;;;;;;;25.86;56.50;99276.97;7394838;19;1288;-41
2023/07/26 00:48:10;;;;;;;;;;;;;;;25.88;56.82;99280.28;7395001;19;1515;-41
2023/07/26 00:50:38;;;;;;;;;;;;;;;25.84;57.11;99279.88;7395269;19;1471;-41
2023/07/26 00:53:07;;;;;;;;;;;;;;;25.85;56.86;99280.72;7395192;19;1513;-41
2023/07/26 00:55:37;;;;;;;;;;;;;;;25.86;57.04;99293.22;7396172;19;1300;-41
2023/07/26 00:58:05;;;;;;;;;;;;;;;25.87;56.72;99271.34;7395159;19;1850;-41
2023/07/26 01:00:36;;;;;;;;;;;;;;;25.90;55.81;99268.22;7393874;19;1891;-41
2023/07/26 01:03:05;;;;;;;;;;;;;;;25.94;56.31;99274.03;7394456;19;1549;-41
2023/07/26 01:05:35;;;;;;;;;;;;;;;25.85;56.49;99267.19;7392827;19;1497;-41
2023/07/26 01:08:08;;;;;;;;;;;;;;;25.79;56.62;99266.19;7396746;19;1523;-41
2023/07/26 01:10:40;;;;;;;;;;;;;;;25.89;56.18;99257.59;7401864;19;1455;-41
2023/07/26 01:13:15;;;;;;;;;;;;;;;25.90;56.44;99272.78;7402442;19;1499;-41
2023/07/26 01:15:47;;;;;;;;;;;;;;;25.88;56.25;99259.44;7401662;19;1187;-41
2023/07/26 01:18:16;;;;;;;;;;;;;;;25.91;56.30;99263.66;7401558;19;1164;-41
2023/07/26 01:20:45;;;;;;;;;;;;;;;25.84;55.06;99258.22;7398619;19;1876;-41
2023/07/26 01:23:16;;;;;;;;;;;;;;;25.87;55.96;99265.09;7402329;19;1543;-41
2023/07/26 01:25:44;;;;;;;;;;;;;;;25.88;55.86;99261.31;7402287;19;1446;-41
2023/07/26 01:28:13;;;;;;;;;;;;;;;25.97;55.51;99257.34;7402783;19;1563;-41
2023/07/26 01:30:41;;;;;;;;;;;;;;;25.92;55.84;99254.44;7401946;19;1502;-41
2023/07/26 01:33:11;;;;;;;;;;;;;;;25.91;55.36;99247.41;7400560;19;1512;-41
2023/07/26 01:35:40;;;;;;;;;;;;;;;25.86;54.78;99255.28;7401250;19;1429;-41
2023/07/26 01:38:09;;;;;;;;;;;;;;;25.87;55.37;99251.56;7401536;19;1599;-41
2023/07/26 01:40:40;;;;;;;;;;;;;;;25.84;55.61;99254.69;7399834;19;1853;-41
2023/07/26 01:43:08;;;;;;;;;;;;;;;25.79;55.62;99256.16;7402445;19;1291;-41
2023/07/26 01:45:37;;;;;;;;;;;;;;;25.88;55.12;99247.78;7401336;19;1186;-41
2023/07/26 01:48:05;;;;;;;;;;;;;;;25.93;54.60;99251.53;7400166;19;1536;-41
2023/07/26 01:50:33;;;;;;;;;;;;;;;25.87;54.28;99243.44;7400261;19;1308;-41
2023/07/26 01:53:02;;;;;;;;;;;;;;;25.87;53.95;99251.56;7400363;19;1245;-41
2023/07/26 01:55:30;;;;;;;;;;;;;;;25.95;54.24;99254.84;7401436;19;1537;-41
2023/07/26 01:58:01;;;;;;;;;;;;;;;26.03;54.67;99250.25;7399918;19;1936;-41
2023/07/26 02:00:29;;;;;;;;;;;;;;;25.88;53.62;99248.59;7399272;19;1852;-41
2023/07/26 02:02:57;;;;;;;;;;;;;;;25.94;54.83;99252.34;7400280;19;1450;-41
2023/07/26 02:05:26;;;;;;;;;;;;;;;26.07;54.08;99246.03;7400629;19;1529;-41
2023/07/26 02:07:52;;;;;;;;;;;;;;;26.14;53.62;99252.22;7400516;19;1263;-41
2023/07/26 02:10:21;;;;;;;;;;;;;;;26.12;54.40;99254.31;7400952;19;1483;-41
2023/07/26 02:12:49;;;;;;;;;;;;;;;26.15;53.80;99248.47;7399949;19;1261;-41
2023/07/26 02:15:21;;;;;;;;;;;;;;;26.06;53.08;99244.38;7398664;19;1433;-41
2023/07/26 02:17:49;;;;;;;;;;;;;;;25.95;53.34;99259.44;7398143;19;1333;-41
2023/07/26 02:20:17;;;;;;;;;;;;;;;25.91;54.08;99263.66;7396011;19;1847;-41
2023/07/26 02:22:46;;;;;;;;;;;;;;;26.06;53.75;99261.44;7396882;19;1205;-41
2023/07/26 02:25:14;;;;;;;;;;;;;;;25.94;53.40;99268.59;7398891;19;1535;-41
2023/07/26 02:27:42;;;;;;;;;;;;;;;26.04;53.72;99263.53;7399629;19;1211;-41
2023/07/26 02:30:11;;;;;;;;;;;;;;;25.99;53.84;99271.50;7399631;19;1693;-41
2023/07/26 02:32:42;;;;;;;;;;;;;;;26.08;52.87;99270.19;7399493;19;1545;-41
2023/07/26 02:35:10;;;;;;;;;;;;;;;26.23;53.28;99277.19;7398996;19;1554;-41
2023/07/26 02:37:39;;;;;;;;;;;;;;;26.18;53.00;99267.84;7399202;19;1537;-41
2023/07/26 02:40:07;;;;;;;;;;;;;;;26.16;53.39;99278.06;7398397;19;1837;-41
2023/07/26 02:42:36;;;;;;;;;;;;;;;26.15;53.45;99275.56;7400290;19;1263;-41
2023/07/26 02:45:04;;;;;;;;;;;;;;;26.26;53.13;99283.00;7398717;19;1461;-41
2023/07/26 02:47:33;;;;;;;;;;;;;;;26.21;53.80;99279.28;7399429;19;1246;-41
2023/07/26 02:50:04;;;;;;;;;;;;;;;26.04;54.32;99273.56;7398619;19;1806;-41
2023/07/26 02:52:32;;;;;;;;;;;;;;;26.03;54.46;99294.41;7398978;19;1589;-41
2023/07/26 02:55:00;;;;;;;;;;;;;;;26.00;54.77;99289.41;7397998;19;1328;-41
2023/07/26 02:57:28;;;;;;;;;;;;;;;26.10;53.77;99287.06;7399172;19;1624;-42
2023/07/26 02:59:57;;;;;;;;;;;;;;;26.05;53.98;99277.94;7397071;19;1864;-42
2023/07/26 03:02:25;;;;;;;;;;;;;;;25.95;54.45;99292.78;7398707;19;1297;-41
2023/07/26 03:04:54;;;;;;;;;;;;;;;25.91;54.74;99274.47;7397738;19;1246;-41
2023/07/26 03:07:24;;;;;;;;;;;;;;;26.06;54.48;99280.41;7398929;19;1628;-41
2023/07/26 03:09:53;;;;;;;;;;;;;;;25.95;54.74;99279.22;7398806;19;1538;-41
2023/07/26 03:12:21;;;;;;;;;;;;;;;26.16;53.89;99283.50;7399099;19;1254;-42
2023/07/26 03:14:50;;;;;;;;;;;;;;;25.98;54.63;99300.47;7397611;19;1223;-43
2023/07/26 03:17:18;;;;;;;;;;;;;;;26.10;54.35;99273.53;7397835;19;1306;-41
2023/07/26 03:19:46;;;;;;;;;;;;;;;26.14;54.41;99279.31;7396290;19;2382;-47
2023/07/26 03:22:14;;;;;;;;;;;;;;;26.08;54.67;99289.13;7397814;19;1545;-41
2023/07/26 03:24:45;;;;;;;;;;;;;;;26.08;54.78;99302.69;7397391;19;1209;-43
2023/07/26 03:27:14;;;;;;;;;;;;;;;25.96;54.89;99285.47;7394842;19;1628;-41
2023/07/26 03:29:42;;;;;;;;;;;;;;;26.10;54.48;99284.38;7397123;19;1210;-42
2023/07/26 03:32:11;;;;;;;;;;;;;;;26.01;55.11;99295.69;7395856;19;1636;-42
2023/07/26 03:34:39;;;;;;;;;;;;;;;25.97;55.00;99309.63;7396539;19;1398;-42
2023/07/26 03:37:08;;;;;;;;;;;;;;;25.94;55.16;99303.81;7396614;19;1643;-41
2023/07/26 03:39:36;;;;;;;;;;;;;;;26.13;54.45;99293.94;7397671;19;1367;-41
2023/07/26 03:42:07;;;;;;;;;;;;;;;26.04;54.88;99290.63;7397974;19;1262;-41
2023/07/26 03:44:35;;;;;;;;;;;;;;;25.92;55.48;99311.34;7396873;19;1406;-42
2023/07/26 03:47:04;;;;;;;;;;;;;;;26.25;54.80;99313.03;7398087;19;1603;-42
2023/07/26 03:49:32;;;;;;;;;;;;;;;26.05;55.07;99303.13;7396884;19;1232;-43
2023/07/26 03:52:01;;;;;;;;;;;;;;;26.18;54.80;99319.31;7396114;19;1351;-41
2023/07/26 03:54:29;;;;;;;;;;;;;;;26.14;54.95;99318.09;7396909;19;1490;-41
2023/07/26 03:56:57;;;;;;;;;;;;;;;26.01;55.19;99312.75;7397026;19;3363;-41
2023/07/26 03:59:28;;;;;;;;;;;;;;;26.03;55.22;99309.84;7397135;19;1471;-41
2023/07/26 04:01:56;;;;;;;;;;;;;;;25.91;55.70;99323.22;7393892;19;2006;-44
2023/07/26 04:04:24;;;;;;;;;;;;;;;26.14;55.03;99325.38;7395942;19;1415;-41
2023/07/26 04:06:53;;;;;;;;;;;;;;;26.10;55.17;99327.72;7396286;19;1276;-42
2023/07/26 04:09:21;;;;;;;;;;;;;;;26.05;55.38;99332.13;7396997;19;1269;-41
2023/07/26 04:11:49;;;;;;;;;;;;;;;26.05;55.32;99332.13;7396377;19;2042;-42
2023/07/26 04:14:17;;;;;;;;;;;;;;;26.03;55.44;99332.31;7396829;19;1521;-41
2023/07/26 04:16:48;;;;;;;;;;;;;;;26.14;55.08;99326.22;7396798;19;1272;-42
2023/07/26 04:19:17;;;;;;;;;;;;;;;26.26;54.98;99341.78;7396018;19;1568;-42
2023/07/26 04:21:45;;;;;;;;;;;;;;;26.25;55.12;99321.16;7391753;19;1854;-42
2023/07/26 04:24:13;;;;;;;;;;;;;;;26.23;55.56;99320.53;7395094;19;1429;-41
2023/07/26 04:26:41;;;;;;;;;;;;;;;26.09;55.69;99317.09;7395482;19;1292;-42
2023/07/26 04:29:10;;;;;;;;;;;;;;;26.10;55.83;99321.44;7395669;19;1411;-42
2023/07/26 04:31:38;;;;;;;;;;;;;;;26.25;55.64;99329.28;7395548;19;1545;-42
2023/07/26 04:34:09;;;;;;;;;;;;;;;26.17;54.82;99320.34;7396958;19;1532;-41
2023/07/26 04:36:37;;;;;;;;;;;;;;;26.09;56.00;99360.44;7396527;19;1278;-41
2023/07/26 04:39:05;;;;;;;;;;;;;;;26.07;55.83;99365.22;7396061;19;1494;-41
2023/07/26 04:41:34;;;;;;;;;;;;;;;26.18;55.59;99356.41;7393120;19;1886;-42
2023/07/26 04:44:02;;;;;;;;;;;;;;;26.11;55.76;99329.34;7392200;19;1817;-41
2023/07/26 04:46:30;;;;;;;;;;;;;;;26.09;55.85;99320.63;7395837;19;1431;-41
2023/07/26 04:48:58;;;;;;;;;;;;;;;26.11;55.37;99337.47;7395256;19;1579;-41
2023/07/26 04:51:29;;;;;;;;;;;;;;;26.11;55.73;99372.69;7392247;19;1848;-42
2023/07/26 04:53:58;;;;;;;;;;;;;;;26.22;55.54;99362.22;7392617;19;1445;-41
2023/07/26 04:56:27;;;;;;;;;;;;;;;26.13;55.41;99359.78;7394609;19;1541;-41
2023/07/26 04:58:55;;;;;;;;;;;;;;;26.31;55.05;99375.31;7395447;19;1276;-41
2023/07/26 05:01:23;;;;;;;;;;;;;;;26.41;55.08;99363.16;6875091;19;10000065;-41
2023/07/26 05:03:52;;;;;;;;;;;;;;;26.42;55.37;99373.75;7391029;19;1838;-41
2023/07/26 05:06:20;;;;;;;;;;;;;;;26.40;55.47;99362.31;7388976;19;1569;-41
2023/07/26 05:08:51;;;;;;;;;;;;;;;26.42;56.92;99346.66;7393456;19;1556;-40
2023/07/26 05:11:20;;;;;;;;;;;;;;;26.41;56.46;99350.44;7382650;19;1506;-41
2023/07/26 05:13:49;;;;;;;;;;;;;;;26.18;56.16;99351.84;7384711;19;1510;-42
2023/07/26 05:16:17;;;;;;;;;;;;;;;26.27;55.84;99346.97;7386514;19;1895;-41
2023/07/26 05:18:45;;;;;;;;;;;;;;;26.36;55.85;99359.22;7384641;19;1510;-42
2023/07/26 05:21:14;;;;;;;;;;;;;;;26.47;55.43;99363.09;7376998;19;1861;-42
2023/07/26 05:23:42;;;;;;;;;;;;;;;26.28;56.23;99366.78;7384475;19;1514;-42
2023/07/26 05:26:13;;;;;;;;;;;;;;;26.29;56.16;99352.19;7385524;19;1631;-42
2023/07/26 05:28:41;;;;;;;;;;;;;;;26.35;56.12;99345.88;7386659;19;1455;-41
2023/07/26 05:31:09;;;;;;;;;;;;;;;26.33;55.86;99337.16;7385762;19;1799;-42
2023/07/26 05:33:37;;;;;;;;;;;;;;;26.41;55.88;99334.16;7385600;19;1547;-42
2023/07/26 05:36:08;;;;;;;;;;;;;;;26.30;56.64;99321.31;7386445;19;1330;-42
2023/07/26 05:38:37;;;;;;;;;;;;;;;26.33;56.64;99337.16;7386063;19;1705;-42
2023/07/26 05:41:06;;;;;;;;;;;;;;;26.50;56.14;99335.56;7385729;19;1863;-42
2023/07/26 05:43:37;;;;;;;;;;;;;;;26.42;56.90;99335.81;7387287;19;1545;-42
2023/07/26 05:46:06;;;;;;;;;;;;;;;26.35;57.06;99343.19;7389647;19;1614;-42
2023/07/26 05:48:34;;;;;;;;;;;;;;;26.22;57.67;99333.25;7389229;19;1215;-42
2023/07/26 05:51:03;;;;;;;;;;;;;;;26.37;57.12;99346.50;7378357;19;1618;-42
2023/07/26 05:53:31;;;;;;;;;;;;;;;26.32;57.19;99346.31;7384008;19;1506;-42
2023/07/26 05:55:59;;;;;;;;;;;;;;;26.29;57.34;99338.63;7390311;19;1430;-42
2023/07/26 05:58:28;;;;;;;;;;;;;;;26.29;57.24;99365.75;7395751;19;1756;-42
2023/07/26 06:00:58;;;;;;;;;;;;;;;26.38;57.06;99340.00;7392907;19;2210;-42
2023/07/26 06:03:27;;;;;;;;;;;;;;;26.49;56.36;99331.19;7393799;19;1577;-42
2023/07/26 06:05:55;;;;;;;;;;;;;;;26.44;56.29;99343.72;7394386;19;1544;-42
2023/07/26 06:08:23;;;;;;;;;;;;;;;26.46;56.62;99336.22;7391546;19;1533;-42
2023/07/26 06:10:52;;;;;;;;;;;;;;;26.58;56.28;99339.91;7389109;19;1553;-42
2023/07/26 06:13:20;;;;;;;;;;;;;;;26.58;56.16;99329.06;7394763;19;1486;-41
2023/07/26 06:15:48;;;;;;;;;;;;;;;26.40;56.50;99335.19;7393402;19;1455;-41
2023/07/26 06:18:19;;;;;;;;;;;;;;;25.96;56.76;99277.34;7390959;19;1472;-41
2023/07/26 06:20:48;;;;;;;;;;;;;;;25.80;57.75;99339.09;7391764;19;1859;-41
2023/07/26 06:23:16;;;;;;;;;;;;;;;25.33;57.20;99338.41;7394455;19;1584;-41
2023/07/26 06:25:44;;;;;;;;;;;;;;;24.99;56.97;99324.06;7394437;19;1223;-41
2023/07/26 06:28:12;;;;;;;;;;;;;;;24.82;56.70;99325.53;7392284;19;1774;-41
2023/07/26 06:30:41;;;;;;;;;;;;;;;24.74;56.87;99334.69;7393235;19;1423;-41
2023/07/26 06:33:09;;;;;;;;;;;;;;;24.84;56.17;99338.84;7391790;19;1484;-41
2023/07/26 06:35:40;;;;;;;;;;;;;;;24.66;56.67;99326.78;7392160;19;1451;-41
2023/07/26 06:38:09;;;;;;;;;;;;;;;24.53;56.87;99326.78;7391754;19;1643;-41
2023/07/26 06:40:37;;;;;;;;;;;;;;;24.71;55.88;99339.69;7391647;19;1538;-41
2023/07/26 06:43:06;;;;;;;;;;;;;;;24.49;56.21;99325.50;7392598;19;1477;-46
2023/07/26 06:45:34;;;;;;;;;;;;;;;24.49;56.06;99325.50;7393647;19;1563;-41
2023/07/26 06:48:03;;;;;;;;;;;;;;;24.64;55.33;99311.84;7393126;19;1552;-41
2023/07/26 06:50:31;;;;;;;;;;;;;;;24.54;55.03;99334.69;7392855;19;1828;-41
2023/07/26 06:53:02;;;;;;;;;;;;;;;24.36;55.44;99318.22;7393473;19;1394;-41
2023/07/26 06:55:30;;;;;;;;;;;;;;;24.46;54.93;99321.34;7394220;19;1557;-41
2023/07/26 06:57:58;;;;;;;;;;;;;;;24.56;54.91;99327.19;7393843;19;1612;-41
2023/07/26 07:00:27;;;;;;;;;;;;;;;24.42;55.98;99320.09;7392719;19;2269;-41
2023/07/26 07:02:56;;;;;;;;;;;;;;;24.47;56.24;99332.97;7390740;19;1830;-41
2023/07/26 07:05:25;;;;;;;;;;;;;;;24.54;56.71;99325.75;7391927;19;1879;-41
2023/07/26 07:07:53;;;;;;;;;;;;;;;24.32;58.01;99317.81;7392049;19;1588;-41
2023/07/26 07:10:24;;;;;;;;;;;;;;;24.41;58.22;99323.81;7392113;19;1986;-41
2023/07/26 07:12:52;;;;;;;;;;;;;;;24.54;58.69;99323.06;7393707;19;1493;-41
2023/07/26 07:15:21;;;;;;;;;;;;;;;24.24;59.96;99312.59;7390920;19;1518;-41
2023/07/26 07:17:49;;;;;;;;;;;;;;;24.49;59.48;99330.91;7392722;19;1692;-41
2023/07/26 07:20:17;;;;;;;;;;;;;;;24.34;60.21;99312.19;7389522;19;1382;-41
2023/07/26 07:22:49;;;;;;;;;;;;;;;24.32;60.47;99317.81;7384229;19;1882;-41
2023/07/26 07:25:17;;;;;;;;;;;;;;;24.32;61.04;99316.97;7388768;19;1505;-41
2023/07/26 07:27:48;;;;;;;;;;;;;;;24.44;60.76;99301.81;7386105;19;1840;-41
2023/07/26 07:30:16;;;;;;;;;;;;;;;24.40;61.14;99311.38;7384654;19;1501;-41
2023/07/26 07:32:45;;;;;;;;;;;;;;;24.38;61.55;99314.28;7390549;19;1532;-41
2023/07/26 07:35:13;;;;;;;;;;;;;;;24.31;61.95;99315.28;7388574;19;1570;-41
2023/07/26 07:37:42;;;;;;;;;;;;;;;24.25;62.08;99308.84;7391116;19;1334;-41
2023/07/26 07:40:11;;;;;;;;;;;;;;;24.24;62.66;99300.97;7390045;19;1274;-41
2023/07/26 07:42:39;;;;;;;;;;;;;;;24.25;62.93;99316.94;7390567;19;1860;-41
2023/07/26 07:45:11;;;;;;;;;;;;;;;24.31;62.83;99312.59;7389966;19;1388;-42
2023/07/26 07:47:39;;;;;;;;;;;;;;;24.28;62.97;99310.31;7393274;19;1527;-42
2023/07/26 07:50:08;;;;;;;;;;;;;;;24.19;63.08;99299.72;7391304;19;1499;-41
2023/07/26 07:52:37;;;;;;;;;;;;;;;24.29;62.90;99306.56;7389093;19;1242;-41
2023/07/26 07:55:05;;;;;;;;;;;;;;;24.40;62.36;99312.19;7389199;19;1747;-41
2023/07/26 07:57:33;;;;;;;;;;;;;;;24.44;61.71;99292.88;7393037;19;1068;-41
2023/07/26 08:00:02;;;;;;;;;;;;;;;24.21;61.56;99302.19;7390409;19;1518;-41
2023/07/26 08:02:33;;;;;;;;;;;;;;;24.28;61.08;99297.63;7389669;19;1837;-41
2023/07/26 08:05:04;;;;;;;;;;;;;;;24.44;59.94;99301.81;7390700;19;1616;-41
2023/07/26 08:07:32;;;;;;;;;;;;;;;24.35;59.74;99287.69;7391662;19;1401;-41
2023/07/26 08:10:01;;;;;;;;;;;;;;;24.38;59.74;99289.13;7390372;19;996;-41
2023/07/26 08:12:29;;;;;;;;;;;;;;;24.45;59.76;99295.34;7389935;19;1489;-41
2023/07/26 08:14:57;;;;;;;;;;;;;;;24.27;59.99;99305.94;7387161;19;1822;-42
2023/07/26 08:17:26;;;;;;;;;;;;;;;24.38;59.67;99306.16;7387122;19;1027;-41
2023/07/26 08:19:57;;;;;;;;;;;;;;;24.25;59.42;99287.22;7387797;19;1476;-41
2023/07/26 08:22:25;;;;;;;;;;;;;;;24.28;59.43;99291.41;7389199;19;1856;-41
2023/07/26 08:24:54;;;;;;;;;;;;;;;24.39;58.89;99310.53;7388818;19;1437;-41
2023/07/26 08:27:22;;;;;;;;;;;;;;;24.42;58.87;99312.00;7390442;19;1747;-42
2023/07/26 08:29:50;;;;;;;;;;;;;;;24.46;58.15;99294.31;7391151;19;1792;-41
2023/07/26 08:32:19;;;;;;;;;;;;;;;24.26;58.84;99305.13;7392236;19;1074;-42
2023/07/26 08:34:47;;;;;;;;;;;;;;;24.24;59.20;99291.00;7389891;19;1894;-42
2023/07/26 08:37:18;;;;;;;;;;;;;;;24.25;58.69;99292.63;7389483;19;1558;-41
2023/07/26 08:39:47;;;;;;;;;;;;;;;24.08;59.31;99284.09;7389788;19;1623;-42
2023/07/26 08:42:15;;;;;;;;;;;;;;;24.13;58.40;99295.13;7384342;19;1849;-41
2023/07/26 08:44:44;;;;;;;;;;;;;;;24.26;58.23;99294.31;7389049;19;1542;-42
2023/07/26 08:47:13;;;;;;;;;;;;;;;24.24;58.47;99290.16;7386188;19;1783;-43
2023/07/26 08:49:41;;;;;;;;;;;;;;;24.28;58.79;99288.72;7385933;19;1504;-42
2023/07/26 08:52:13;;;;;;;;;;;;;;;24.31;59.00;99288.28;7387246;19;1442;-41
2023/07/26 08:54:45;;;;;;;;;;;;;;;24.29;59.62;99290.34;7388520;19;2311;-42
2023/07/26 08:57:14;;;;;;;;;;;;;;;24.26;60.52;99288.09;7388130;19;1568;-41
2023/07/26 08:59:42;;;;;;;;;;;;;;;24.16;61.44;99283.09;7385385;19;1621;-42
2023/07/26 09:02:13;;;;;;;;;;;;;;;24.24;61.31;99287.47;7384068;19;1852;-41
2023/07/26 09:04:41;;;;;;;;;;;;;;;24.27;61.29;99279.75;7386654;19;1516;-41
2023/07/26 09:07:10;;;;;;;;;;;;;;;24.26;61.46;99288.09;7385135;19;1508;-41
2023/07/26 09:09:40;;;;;;;;;;;;;;;24.12;62.02;99287.22;7387499;19;1430;-41
2023/07/26 09:12:11;;;;;;;;;;;;;;;24.15;62.41;99284.97;7387400;19;1396;-41
2023/07/26 09:14:40;;;;;;;;;;;;;;;24.13;62.35;99276.22;7387511;19;1572;-41
2023/07/26 09:17:08;;;;;;;;;;;;;;;24.27;62.07;99284.34;7387959;19;1528;-42
2023/07/26 09:19:37;;;;;;;;;;;;;;;23.81;61.84;99200.38;7385632;19;1446;-41
2023/07/26 09:22:06;;;;;;;;;;;;;;;24.24;61.98;99273.94;6858664;19;10000124;-41
2023/07/26 09:24:35;;;;;;;;;;;;;;;24.38;61.11;99270.22;7377838;19;1493;-42
2023/07/26 09:27:06;;;;;;;;;;;;;;;24.16;61.95;99269.59;7378866;19;1513;-42
2023/07/26 09:29:37;;;;;;;;;;;;;;;24.30;61.55;99276.66;7384944;19;1556;-42
2023/07/26 09:32:06;;;;;;;;;;;;;;;24.39;60.72;99266.47;7391290;19;1519;-42
2023/07/26 09:34:34;;;;;;;;;;;;;;;24.24;61.46;99265.84;7391094;19;1545;-42
2023/07/26 09:37:02;;;;;;;;;;;;;;;24.35;60.79;99257.97;7389708;19;1549;-41
2023/07/26 09:39:33;;;;;;;;;;;;;;;24.28;60.95;99269.81;7389503;19;1599;-42
2023/07/26 09:42:08;;;;;;;;;;;;;;;24.21;61.35;99257.13;7393535;19;1863;-41
2023/07/26 09:44:39;;;;;;;;;;;;;;;24.31;60.93;99253.16;7393608;19;1381;-42
2023/07/26 09:47:08;;;;;;;;;;;;;;;24.28;60.92;99246.31;7393668;19;1466;-42
2023/07/26 09:49:36;;;;;;;;;;;;;;;24.15;61.25;99244.44;7394231;19;1629;-42
2023/07/26 09:52:05;;;;;;;;;;;;;;;24.34;60.33;99250.06;7394048;19;1564;-41
2023/07/26 09:54:35;;;;;;;;;;;;;;;24.14;61.48;99253.56;7394620;19;1707;-41
2023/07/26 09:57:04;;;;;;;;;;;;;;;24.18;60.93;99229.69;7393151;19;1540;-41
2023/07/26 09:59:34;;;;;;;;;;;;;;;24.30;60.69;99246.94;7395101;19;1509;-42
2023/07/26 10:02:08;;;;;;;;;;;;;;;24.17;61.08;99236.97;7393633;19;2276;-42
2023/07/26 10:04:38;;;;;;;;;;;;;;;24.10;61.31;99206.41;7394339;19;1552;-42
2023/07/26 10:07:10;;;;;;;;;;;;;;;24.23;61.01;99240.69;7393547;19;1536;-41
2023/07/26 10:09:43;;;;;;;;;;;;;;;24.21;61.04;99237.38;7393010;19;1660;-42
2023/07/26 10:12:11;;;;;;;;;;;;;;;24.22;60.87;99225.53;7394606;19;1608;-42
2023/07/26 10:14:40;;;;;;;;;;;;;;;24.19;60.81;99234.91;7393074;19;1614;-42
2023/07/26 10:17:12;;;;;;;;;;;;;;;24.14;61.62;99218.47;7394169;19;1982;-41
2023/07/26 10:19:41;;;;;;;;;;;;;;;24.18;61.52;99210.78;7391837;19;1477;-42
2023/07/26 10:22:10;;;;;;;;;;;;;;;24.13;61.26;99211.41;7390899;19;2241;-42
2023/07/26 10:24:39;;;;;;;;;;;;;;;24.13;61.39;99208.72;7393302;19;1407;-41
2023/07/26 10:27:07;;;;;;;;;;;;;;;24.18;60.92;99217.00;7392436;19;1470;-42
2023/07/26 10:29:36;;;;;;;;;;;;;;;24.12;61.19;99212.44;7393951;19;1517;-41
2023/07/26 10:32:06;;;;;;;;;;;;;;;24.16;61.49;99208.28;7396264;19;1195;-42
2023/07/26 10:34:37;;;;;;;;;;;;;;;24.15;61.13;99203.94;7393983;19;1260;-42
2023/07/26 10:37:15;;;;;;;;;;;;;;;24.18;60.92;99190.00;7394236;19;1254;-42
2023/07/26 10:39:44;;;;;;;;;;;;;;;24.19;60.90;99190.81;7398414;19;1554;-42
2023/07/26 10:42:23;;;;;;;;;;;;;;;24.13;61.70;99195.22;7396484;19;1857;-41
2023/07/26 10:44:51;;;;;;;;;;;;;;;24.24;61.52;99180.25;7399904;19;1284;-42
2023/07/26 10:47:20;;;;;;;;;;;;;;;24.21;62.08;99194.16;7400149;19;1224;-41
2023/07/26 10:49:51;;;;;;;;;;;;;;;24.26;65.00;99193.53;7397343;19;1453;-41
2023/07/26 10:52:20;;;;;;;;;;;;;;;24.48;64.66;99189.56;7397501;19;1592;-43
2023/07/26 10:54:49;;;;;;;;;;;;;;;24.65;62.61;99189.16;7393713;19;1517;-41
2023/07/26 10:57:21;;;;;;;;;;;;;;;24.67;60.68;99169.00;7391886;19;1446;-44
2023/07/26 11:00:09;;;;;;;;;;;;;;;24.79;59.36;99188.09;7397620;19;1493;-43
2023/07/26 11:02:38;;;;;;;;;;;;;;;24.93;58.89;99186.16;7396327;19;1861;-44
2023/07/26 11:05:12;;;;;;;;;;;;;;;24.90;57.90;99176.59;7397799;19;1461;-43
2023/07/26 11:07:53;;;;;;;;;;;;;;;24.83;57.36;99183.94;7396584;19;1986;-43
2023/07/26 11:10:22;;;;;;;;;;;;;;;24.74;57.10;99167.09;7397288;19;1303;-43
2023/07/26 11:12:51;;;;;;;;;;;;;;;24.72;57.03;99162.94;7399568;19;1209;-44
2023/07/26 11:15:28;;;;;;;;;;;;;;;24.75;56.84;99167.91;7397647;19;1377;-44
2023/07/26 11:17:57;;;;;;;;;;;;;;;24.74;56.26;99150.03;7395455;19;1466;-44
2023/07/26 11:20:28;;;;;;;;;;;;;;;24.85;56.07;99162.91;7395283;19;1207;-44
2023/07/26 11:22:56;;;;;;;;;;;;;;;24.93;56.31;99162.66;7397543;19;1838;-44
2023/07/26 11:25:25;;;;;;;;;;;;;;;24.98;56.20;99154.72;7397902;19;1800;-44
2023/07/26 11:27:54;;;;;;;;;;;;;;;24.95;56.89;99157.88;7395243;19;1674;-44
2023/07/26 11:30:22;;;;;;;;;;;;;;;24.96;57.24;99154.13;7395880;19;1331;-44
2023/07/26 11:32:51;;;;;;;;;;;;;;;25.05;56.49;99157.44;7382708;19;1445;-44
2023/07/26 11:35:20;;;;;;;;;;;;;;;25.15;56.54;99132.63;7387675;19;1419;-44
2023/07/26 11:37:55;;;;;;;;;;;;;;;25.40;58.44;99136.22;7388795;19;1544;-44
2023/07/26 11:40:24;;;;;;;;;;;;;;;25.23;60.29;99137.81;7392518;19;1325;-44
2023/07/26 11:42:53;;;;;;;;;;;;;;;24.10;58.57;98995.78;7390195;19;1868;-42
2023/07/26 11:45:21;;;;;;;;;;;;;;;25.06;57.24;99144.72;7388737;19;1443;-42
2023/07/26 11:47:50;;;;;;;;;;;;;;;24.95;56.31;99151.66;7389418;19;1904;-42
2023/07/26 11:50:20;;;;;;;;;;;;;;;25.00;57.10;99143.72;7392142;19;1290;-42
2023/07/26 11:53:03;;;;;;;;;;;;;;;25.06;56.59;99142.03;7390267;19;1329;-41
2023/07/26 11:55:34;;;;;;;;;;;;;;;25.17;56.11;99133.25;7385857;19;1934;-42
2023/07/26 11:58:03;;;;;;;;;;;;;;;25.02;55.91;99142.44;7384126;19;1677;-42
2023/07/26 12:00:33;;;;;;;;;;;;;;;24.91;56.52;99132.31;7386215;19;1213;-43
2023/07/26 12:03:02;;;;;;;;;;;;;;;24.90;56.16;99149.56;7388854;19;1880;-42
2023/07/26 12:05:31;;;;;;;;;;;;;;;25.07;56.16;99130.13;7387924;19;1315;-42
2023/07/26 12:08:01;;;;;;;;;;;;;;;24.69;56.09;99060.63;7392202;19;1469;-42
2023/07/26 12:10:31;;;;;;;;;;;;;;;25.09;55.58;99114.53;7389752;19;1573;-42
2023/07/26 12:13:08;;;;;;;;;;;;;;;25.00;54.95;99132.88;7389844;19;1292;-42
2023/07/26 12:15:50;;;;;;;;;;;;;;;25.01;54.42;99115.63;7390299;19;1274;-42
2023/07/26 12:18:19;;;;;;;;;;;;;;;24.90;54.75;99116.28;7390051;19;1521;-42
2023/07/26 12:20:57;;;;;;;;;;;;;;;24.91;55.34;99129.59;7387196;19;1628;-42
2023/07/26 12:23:26;;;;;;;;;;;;;;;24.88;55.47;99123.78;7387733;19;1844;-43
2023/07/26 12:25:56;;;;;;;;;;;;;;;24.94;55.23;99131.03;7386365;19;1262;-43
2023/07/26 12:28:27;;;;;;;;;;;;;;;24.93;54.08;99110.44;7390165;19;1137;-43
2023/07/26 12:30:56;;;;;;;;;;;;;;;24.90;53.83;99117.13;7390421;19;1227;-43
2023/07/26 12:33:25;;;;;;;;;;;;;;;24.97;53.25;99107.13;7390950;19;1362;-42
2023/07/26 12:35:54;;;;;;;;;;;;;;;24.93;53.09;99127.53;7387000;19;1140;-43
2023/07/26 12:38:23;;;;;;;;;;;;;;;24.81;53.32;99131.94;7387298;19;1172;-43
2023/07/26 12:40:53;;;;;;;;;;;;;;;24.75;53.70;99113.84;7387501;19;1483;-42
2023/07/26 12:43:21;;;;;;;;;;;;;;;24.80;53.95;99125.69;7389801;19;1857;-42
2023/07/26 12:45:52;;;;;;;;;;;;;;;24.86;53.42;99126.69;7389392;19;1517;-42
2023/07/26 12:48:21;;;;;;;;;;;;;;;24.81;54.15;99105.72;7388229;19;1608;-42
2023/07/26 12:50:49;;;;;;;;;;;;;;;24.85;54.04;99102.56;7386664;19;1588;-42
2023/07/26 12:53:17;;;;;;;;;;;;;;;24.88;53.70;99115.69;7384464;19;1356;-43
2023/07/26 12:55:46;;;;;;;;;;;;;;;24.96;53.54;99104.63;7386541;19;1186;-42
2023/07/26 12:58:14;;;;;;;;;;;;;;;24.99;53.84;99088.78;7386845;19;1938;-46
2023/07/26 13:00:43;;;;;;;;;;;;;;;25.01;55.17;99108.34;7384461;19;1252;-43
2023/07/26 13:03:13;;;;;;;;;;;;;;;25.10;55.61;99103.50;7384791;19;1845;-42
2023/07/26 13:05:42;;;;;;;;;;;;;;;25.08;55.58;99102.88;7395253;19;1299;-42
2023/07/26 13:08:10;;;;;;;;;;;;;;;25.15;55.01;99103.69;7395192;19;1589;-42